createdAt,value
2023-04-16T00:00:05.282Z,10.90
2023-04-16T00:02:31.857Z,10.60
2023-04-16T00:04:58.392Z,11.10
2023-04-16T00:07:24.942Z,10.00
2023-04-16T00:09:51.504Z,10.20
2023-04-16T00:12:18.045Z,10.70
2023-04-16T00:14:44.547Z,10.70
2023-04-16T00:17:11.103Z,10.40
2023-04-16T00:19:38.297Z,10.70
2023-04-16T00:22:04.788Z,11.30
2023-04-16T00:24:31.255Z,10.50
2023-04-16T00:26:57.731Z,11.20
2023-04-16T00:29:24.209Z,11.40
2023-04-16T00:31:50.669Z,11.10
2023-04-16T00:34:17.139Z,10.90
2023-04-16T00:36:43.602Z,11.40
2023-04-16T00:39:10.218Z,11.80
2023-04-16T00:41:37.957Z,11.00
2023-04-16T00:44:04.415Z,11.70
2023-04-16T00:46:31.589Z,11.20
2023-04-16T00:49:00.807Z,11.50
2023-04-16T00:51:27.371Z,11.70
2023-04-16T00:53:53.912Z,12.90
2023-04-16T00:56:22.289Z,11.10
2023-04-16T00:58:49.349Z,12.00
2023-04-16T01:01:15.904Z,11.50
2023-04-16T01:03:48.277Z,11.70
2023-04-16T01:06:17.388Z,12.00
2023-04-16T01:08:44.809Z,12.20
2023-04-16T01:11:11.644Z,11.80
2023-04-16T01:13:38.165Z,11.70
2023-04-16T01:16:06.766Z,13.20
2023-04-16T01:18:33.779Z,11.60
2023-04-16T01:21:00.526Z,12.70
2023-04-16T01:23:27.039Z,11.90
2023-04-16T01:25:53.578Z,12.80
2023-04-16T01:28:20.141Z,12.00
2023-04-16T01:30:46.639Z,11.60
2023-04-16T01:33:14.040Z,12.80
2023-04-16T01:35:40.800Z,12.60
2023-04-16T01:38:08.654Z,12.70
2023-04-16T01:40:36.319Z,11.10
2023-04-16T01:43:03.046Z,11.30
2023-04-16T01:45:31.741Z,10.80
2023-04-16T01:47:58.456Z,10.40
2023-04-16T01:50:25.073Z,9.80
2023-04-16T01:52:51.652Z,9.70
2023-04-16T01:55:18.370Z,10.30
2023-04-16T01:57:44.948Z,11.40
2023-04-16T02:00:11.641Z,11.00
2023-04-16T02:02:38.340Z,11.50
2023-04-16T02:05:05.335Z,10.30
2023-04-16T02:07:31.888Z,10.40
2023-04-16T02:09:58.381Z,10.30
2023-04-16T02:12:25.342Z,10.30
2023-04-16T02:14:51.788Z,9.30
2023-04-16T02:17:18.349Z,9.70
2023-04-16T02:19:44.854Z,11.00
2023-04-16T02:22:11.321Z,9.50
2023-04-16T02:24:37.773Z,9.20
2023-04-16T02:27:04.249Z,9.90
2023-04-16T02:29:30.733Z,9.80
2023-04-16T02:31:57.319Z,9.80
2023-04-16T02:34:23.772Z,9.70
2023-04-16T02:36:50.258Z,11.30
2023-04-16T02:39:16.728Z,11.40
2023-04-16T02:41:43.199Z,10.90
2023-04-16T02:44:09.682Z,10.20
2023-04-16T02:46:36.192Z,10.80
2023-04-16T02:49:02.686Z,10.00
2023-04-16T02:51:29.155Z,10.00
2023-04-16T02:53:55.656Z,9.80
2023-04-16T02:56:22.096Z,10.30
2023-04-16T02:58:48.609Z,10.00
2023-04-16T03:01:15.144Z,10.20
2023-04-16T03:03:41.642Z,9.60
2023-04-16T03:06:08.103Z,10.00
2023-04-16T03:08:34.570Z,7.80
2023-04-16T03:11:01.028Z,8.70
2023-04-16T03:13:27.492Z,9.90
2023-04-16T03:15:54.014Z,9.40
2023-04-16T03:18:20.510Z,9.50
2023-04-16T03:20:51.759Z,9.20
2023-04-16T03:23:18.212Z,9.00
2023-04-16T03:25:45.261Z,8.80
2023-04-16T03:28:11.716Z,8.70
2023-04-16T03:30:38.196Z,8.60
2023-04-16T03:33:04.692Z,8.20
2023-04-16T03:35:31.158Z,8.60
2023-04-16T03:37:57.629Z,8.30
2023-04-16T03:40:24.090Z,8.80
2023-04-16T03:42:50.612Z,8.20
2023-04-16T03:45:17.252Z,8.60
2023-04-16T03:47:43.727Z,8.40
2023-04-16T03:50:10.627Z,7.30
2023-04-16T03:52:37.139Z,7.90
2023-04-16T03:55:04.033Z,8.00
2023-04-16T03:57:30.527Z,8.30
2023-04-16T03:59:56.973Z,7.50
2023-04-16T04:02:23.561Z,8.70
2023-04-16T04:04:50.155Z,7.80
2023-04-16T04:07:16.662Z,9.10
2023-04-16T04:09:43.179Z,8.90
2023-04-16T04:12:09.864Z,8.40
2023-04-16T04:14:36.320Z,8.30
2023-04-16T04:17:02.814Z,7.60
2023-04-16T04:19:29.290Z,6.70
2023-04-16T04:21:55.745Z,7.50
2023-04-16T04:24:22.190Z,8.20
2023-04-16T04:26:48.713Z,8.80
2023-04-16T04:29:15.251Z,7.40
2023-04-16T04:31:41.881Z,7.80
2023-04-16T04:34:08.433Z,7.90
2023-04-16T04:36:34.906Z,8.50
2023-04-16T04:39:01.496Z,8.30
2023-04-16T04:41:28.042Z,8.20
2023-04-16T04:43:54.512Z,8.20
2023-04-16T04:46:21.189Z,8.30
2023-04-16T04:48:47.726Z,7.80
2023-04-16T04:51:14.229Z,7.10
2023-04-16T04:53:40.720Z,7.70
2023-04-16T04:56:12.357Z,6.70
2023-04-16T04:58:40.590Z,6.90
2023-04-16T05:01:07.142Z,6.30
2023-04-16T05:03:33.805Z,6.60
2023-04-16T05:06:00.301Z,7.30
2023-04-16T05:08:26.757Z,7.10
2023-04-16T05:10:53.186Z,7.10
2023-04-16T05:13:19.674Z,6.70
2023-04-16T05:15:46.224Z,6.70
2023-04-16T05:18:12.699Z,6.60
2023-04-16T05:20:39.167Z,6.60
2023-04-16T05:23:05.761Z,6.50
2023-04-16T05:25:32.234Z,6.20
2023-04-16T05:27:58.716Z,7.00
2023-04-16T05:30:25.177Z,6.20
2023-04-16T05:32:51.723Z,6.40
2023-04-16T05:35:18.240Z,6.60
2023-04-16T05:37:44.727Z,5.80
2023-04-16T05:40:13.550Z,5.80
2023-04-16T05:42:40.053Z,6.30
2023-04-16T05:45:07.028Z,6.30
2023-04-16T05:47:33.514Z,6.10
2023-04-16T05:49:59.983Z,6.10
2023-04-16T05:52:26.406Z,5.80
2023-04-16T05:54:52.915Z,5.70
2023-04-16T05:57:19.383Z,6.20
2023-04-16T05:59:45.845Z,5.80
2023-04-16T06:02:12.520Z,5.50
2023-04-16T06:04:39.054Z,5.70
2023-04-16T06:07:05.545Z,5.40
2023-04-16T06:09:32.002Z,5.70
2023-04-16T06:11:58.610Z,6.30
2023-04-16T06:14:25.168Z,5.10
2023-04-16T06:16:51.690Z,5.10
2023-04-16T06:19:18.173Z,5.60
2023-04-16T06:21:44.732Z,5.60
2023-04-16T06:24:11.260Z,5.50
2023-04-16T06:26:37.740Z,5.40
2023-04-16T06:29:04.476Z,5.50
2023-04-16T06:31:31.152Z,5.10
2023-04-16T06:33:57.670Z,5.00
2023-04-16T06:36:24.215Z,5.60
2023-04-16T06:38:50.691Z,5.40
2023-04-16T06:41:17.202Z,5.60
2023-04-16T06:43:44.105Z,5.00
2023-04-16T06:46:10.625Z,5.70
2023-04-16T06:48:37.112Z,4.90
2023-04-16T06:51:04.103Z,5.40
2023-04-16T06:53:30.641Z,5.30
2023-04-16T06:55:57.121Z,5.50
2023-04-16T06:58:23.670Z,5.60
2023-04-16T07:00:50.325Z,4.80
2023-04-16T07:03:16.947Z,5.10
2023-04-16T07:05:43.534Z,5.80
2023-04-16T07:08:10.247Z,5.40
2023-04-16T07:10:36.769Z,5.40
2023-04-16T07:13:03.301Z,5.30
2023-04-16T07:15:29.839Z,5.30
2023-04-16T07:17:56.421Z,4.90
2023-04-16T07:20:22.894Z,5.50
2023-04-16T07:22:49.496Z,4.90
2023-04-16T07:25:16.043Z,5.00
2023-04-16T07:27:42.616Z,5.90
2023-04-16T07:30:10.245Z,5.30
2023-04-16T07:32:36.866Z,5.30
2023-04-16T07:35:03.390Z,5.20
2023-04-16T07:37:29.886Z,5.00
2023-04-16T07:39:57.387Z,5.30
2023-04-16T07:42:23.997Z,5.40
2023-04-16T07:44:50.454Z,5.10
2023-04-16T07:47:16.953Z,4.90
2023-04-16T07:49:43.476Z,4.90
2023-04-16T07:52:10.022Z,4.90
2023-04-16T07:54:36.515Z,5.20
2023-04-16T07:57:03.103Z,4.90
2023-04-16T07:59:29.801Z,4.90
2023-04-16T08:01:56.756Z,4.90
2023-04-16T08:04:23.555Z,5.00
2023-04-16T08:06:51.193Z,4.80
2023-04-16T08:09:19.546Z,4.40
2023-04-16T08:11:46.159Z,4.70
2023-04-16T08:14:12.669Z,4.30
2023-04-16T08:16:39.176Z,5.00
2023-04-16T08:19:05.650Z,4.30
2023-04-16T08:21:33.336Z,4.90
2023-04-16T08:23:59.979Z,4.90
2023-04-16T08:26:26.447Z,4.70
2023-04-16T08:28:52.942Z,4.30
2023-04-16T08:31:19.565Z,4.30
2023-04-16T08:33:46.126Z,4.40
2023-04-16T08:36:12.662Z,4.20
2023-04-16T08:38:39.746Z,3.70
2023-04-16T08:41:09.231Z,4.40
2023-04-16T08:43:38.362Z,4.60
2023-04-16T08:46:08.918Z,4.20
2023-04-16T08:48:37.098Z,4.20
2023-04-16T08:51:03.716Z,4.50
2023-04-16T08:53:43.896Z,4.10
2023-04-16T08:56:11.748Z,4.00
2023-04-16T08:58:40.200Z,4.20
2023-04-16T09:01:08.902Z,4.10
2023-04-16T09:03:36.674Z,4.30
2023-04-16T09:06:04.589Z,3.60
2023-04-16T09:08:32.011Z,4.20
2023-04-16T09:10:59.812Z,3.80
2023-04-16T09:13:26.919Z,4.30
2023-04-16T09:15:54.397Z,4.80
2023-04-16T09:18:20.994Z,4.30
2023-04-16T09:20:49.536Z,4.30
2023-04-16T09:23:16.006Z,4.30
2023-04-16T09:25:42.589Z,4.20
2023-04-16T09:28:12.265Z,3.90
2023-04-16T09:30:38.840Z,4.10
2023-04-16T09:33:33.259Z,4.20
2023-04-16T09:36:01.941Z,4.00
2023-04-16T09:38:46.377Z,4.10
2023-04-16T09:41:13.794Z,4.60
2023-04-16T09:43:40.254Z,3.90
2023-04-16T09:46:08.100Z,3.60
2023-04-16T09:48:35.111Z,4.10
2023-04-16T09:51:01.792Z,4.20
2023-04-16T09:53:30.367Z,4.40
2023-04-16T09:56:01.408Z,3.70
2023-04-16T09:58:28.452Z,3.90
2023-04-16T10:01:10.437Z,3.80
2023-04-16T10:03:38.912Z,3.40
2023-04-16T10:06:14.888Z,3.70
2023-04-16T10:08:47.879Z,3.60
2023-04-16T10:11:17.813Z,2.60
2023-04-16T10:13:44.379Z,2.40
2023-04-16T10:16:11.395Z,2.20
2023-04-16T10:18:43.596Z,2.40
2023-04-16T10:21:10.356Z,2.10
2023-04-16T10:23:38.303Z,2.30
2023-04-16T10:26:05.353Z,38.70
2023-04-16T10:28:32.330Z,4.60
2023-04-16T10:31:01.157Z,6.80
2023-04-16T10:33:30.193Z,5.30
2023-04-16T10:36:22.682Z,2.40
2023-04-16T10:38:56.765Z,1.80
2023-04-16T10:41:23.355Z,2.10
2023-04-16T10:43:50.952Z,1.60
2023-04-16T10:46:41.705Z,1.80
2023-04-16T10:49:19.705Z,1.90
2023-04-16T10:51:57.449Z,1.80
2023-04-16T10:54:29.133Z,2.50
2023-04-16T10:57:04.271Z,1.90
2023-04-16T10:59:32.919Z,1.80
2023-04-16T11:02:01.105Z,1.90
2023-04-16T11:04:30.167Z,1.80
2023-04-16T11:07:03.809Z,1.40
2023-04-16T11:10:03.465Z,2.00
2023-04-16T11:12:29.941Z,1.60
2023-04-16T11:15:05.361Z,3.30
2023-04-16T11:17:44.221Z,2.10
2023-04-16T11:20:18.062Z,1.90
2023-04-16T11:22:47.679Z,1.80
2023-04-16T11:25:19.885Z,1.80
2023-04-16T11:27:46.353Z,2.00
2023-04-16T11:30:13.161Z,1.80
2023-04-16T11:32:40.101Z,1.70
2023-04-16T11:35:25.148Z,1.80
2023-04-16T11:37:56.407Z,1.80
2023-04-16T11:40:23.400Z,1.70
2023-04-16T11:42:49.895Z,1.80
2023-04-16T11:45:16.417Z,1.70
2023-04-16T11:47:51.019Z,1.70
2023-04-16T11:50:22.214Z,1.80
2023-04-16T11:52:49.972Z,1.40
2023-04-16T11:55:16.587Z,1.50
2023-04-16T11:57:43.159Z,1.40
2023-04-16T12:00:10.648Z,1.40
2023-04-16T12:02:42.729Z,1.50
2023-04-16T12:05:27.370Z,1.60
2023-04-16T12:07:54.094Z,1.80
2023-04-16T12:10:20.736Z,1.70
2023-04-16T12:12:47.310Z,1.60
2023-04-16T12:15:13.853Z,1.50
2023-04-16T12:17:40.428Z,1.30
2023-04-16T12:20:12.088Z,1.40
2023-04-16T12:22:40.523Z,1.40
2023-04-16T12:25:33.282Z,1.50
2023-04-16T12:27:59.815Z,1.70
2023-04-16T12:30:27.086Z,1.30
2023-04-16T12:33:16.994Z,1.40
2023-04-16T12:35:43.535Z,1.30
2023-04-16T12:38:10.623Z,1.60
2023-04-16T12:40:37.730Z,1.30
2023-04-16T12:43:04.334Z,1.50
2023-04-16T12:45:30.840Z,1.50
2023-04-16T12:47:57.433Z,1.70
2023-04-16T12:50:24.137Z,1.40
2023-04-16T12:52:50.653Z,1.40
2023-04-16T12:55:17.335Z,1.90
2023-04-16T12:57:44.749Z,1.30
2023-04-16T13:00:11.756Z,1.70
2023-04-16T13:02:38.362Z,1.40
2023-04-16T13:05:05.152Z,1.30
2023-04-16T13:07:31.664Z,1.40
2023-04-16T13:09:58.161Z,1.20
2023-04-16T13:12:24.692Z,1.40
2023-04-16T13:14:51.146Z,1.40
2023-04-16T13:17:17.640Z,1.10
2023-04-16T13:19:44.123Z,1.30
2023-04-16T13:22:10.589Z,1.20
2023-04-16T13:24:37.242Z,1.30
2023-04-16T13:27:03.789Z,1.30
2023-04-16T13:29:30.428Z,1.40
2023-04-16T13:31:57.737Z,1.40
2023-04-16T13:34:24.248Z,1.50
2023-04-16T13:36:50.768Z,1.40
2023-04-16T13:39:17.278Z,1.40
2023-04-16T13:41:43.801Z,1.20
2023-04-16T13:44:10.289Z,1.20
2023-04-16T13:46:36.876Z,1.40
2023-04-16T13:49:03.426Z,1.40
2023-04-16T13:51:29.936Z,1.40
2023-04-16T13:53:56.444Z,1.50
2023-04-16T13:56:23.135Z,1.40
2023-04-16T13:58:49.764Z,1.40
2023-04-16T14:01:16.402Z,1.70
2023-04-16T14:03:43.035Z,1.30
2023-04-16T14:06:09.659Z,1.30
2023-04-16T14:08:36.229Z,1.40
2023-04-16T14:11:02.739Z,1.20
2023-04-16T14:13:29.267Z,1.40
2023-04-16T14:15:55.849Z,1.40
2023-04-16T14:18:22.504Z,1.10
2023-04-16T14:20:48.940Z,1.30
2023-04-16T14:23:15.440Z,1.50
2023-04-16T14:25:42.057Z,1.40
2023-04-16T14:28:08.557Z,1.50
2023-04-16T14:30:35.027Z,1.40
2023-04-16T14:33:01.583Z,1.60
2023-04-16T14:35:28.399Z,1.60
2023-04-16T14:37:55.797Z,1.50
2023-04-16T14:40:22.292Z,1.50
2023-04-16T14:42:48.778Z,1.70
2023-04-16T14:45:15.278Z,1.70
2023-04-16T14:47:41.805Z,1.70
2023-04-16T14:50:08.738Z,1.70
2023-04-16T14:52:35.195Z,1.90
2023-04-16T14:55:01.676Z,1.40
2023-04-16T14:57:28.175Z,1.70
2023-04-16T14:59:54.645Z,1.70
2023-04-16T15:02:21.363Z,1.50
2023-04-16T15:04:48.026Z,1.30
2023-04-16T15:07:14.505Z,10.80
2023-04-16T15:09:41.000Z,1.70
2023-04-16T15:12:07.517Z,1.90
2023-04-16T15:14:34.213Z,1.30
2023-04-16T15:17:00.925Z,1.70
2023-04-16T15:19:27.556Z,1.60
2023-04-16T15:21:54.067Z,1.50
2023-04-16T15:24:20.560Z,1.40
2023-04-16T15:26:47.091Z,3.00
2023-04-16T15:29:13.605Z,1.60
2023-04-16T15:31:40.164Z,1.70
2023-04-16T15:34:06.816Z,2.00
2023-04-16T15:36:33.351Z,1.50
2023-04-16T15:38:59.814Z,1.50
2023-04-16T15:41:29.035Z,1.50
2023-04-16T15:43:55.538Z,1.60
2023-04-16T15:46:22.191Z,1.70
2023-04-16T15:48:48.662Z,1.50
2023-04-16T15:51:15.468Z,1.50
2023-04-16T15:53:42.038Z,1.50
2023-04-16T15:56:08.587Z,1.60
2023-04-16T15:58:35.060Z,1.60
2023-04-16T16:01:01.518Z,1.70
2023-04-16T16:03:28.110Z,1.70
2023-04-16T16:05:54.737Z,1.70
2023-04-16T16:08:21.285Z,1.70
2023-04-16T16:10:47.782Z,1.90
2023-04-16T16:13:14.281Z,2.10
2023-04-16T16:15:40.856Z,2.70
2023-04-16T16:18:07.624Z,2.90
2023-04-16T16:20:34.235Z,3.70
2023-04-16T16:23:00.921Z,2.30
2023-04-16T16:25:27.467Z,2.10
2023-04-16T16:27:53.988Z,2.00
2023-04-16T16:30:20.472Z,2.10
2023-04-16T16:32:47.022Z,1.90
2023-04-16T16:35:13.594Z,2.20
2023-04-16T16:37:40.092Z,2.50
2023-04-16T16:40:07.054Z,2.20
2023-04-16T16:42:33.594Z,1.90
2023-04-16T16:45:00.245Z,2.00
2023-04-16T16:47:26.756Z,2.00
2023-04-16T16:49:53.325Z,2.00
2023-04-16T16:52:22.890Z,2.40
2023-04-16T16:54:49.491Z,2.10
2023-04-16T16:57:18.050Z,1.80
2023-04-16T16:59:44.586Z,1.90
2023-04-16T17:02:11.201Z,1.60
2023-04-16T17:04:37.877Z,1.80
2023-04-16T17:07:04.451Z,1.90
2023-04-16T17:09:30.935Z,2.00
2023-04-16T17:11:57.429Z,2.00
2023-04-16T17:14:24.229Z,2.30
2023-04-16T17:16:50.858Z,2.10
2023-04-16T17:19:17.439Z,2.20
2023-04-16T17:21:44.368Z,2.20
2023-04-16T17:24:11.006Z,2.40
2023-04-16T17:26:37.704Z,2.10
2023-04-16T17:29:04.179Z,2.20
2023-04-16T17:31:30.690Z,2.30
2023-04-16T17:33:57.163Z,2.30
2023-04-16T17:36:23.662Z,2.30
2023-04-16T17:38:50.123Z,2.10
2023-04-16T17:41:16.583Z,2.20
2023-04-16T17:43:43.181Z,2.50
2023-04-16T17:46:12.757Z,2.70
2023-04-16T17:48:39.308Z,2.50
2023-04-16T17:51:13.366Z,2.40
2023-04-16T17:53:39.893Z,2.20
2023-04-16T17:56:06.780Z,2.00
2023-04-16T17:58:33.282Z,2.00
2023-04-16T18:00:59.814Z,2.30
2023-04-16T18:03:26.490Z,2.40
2023-04-16T18:05:53.097Z,2.30
2023-04-16T18:08:19.563Z,2.20
2023-04-16T18:10:46.052Z,2.10
2023-04-16T18:13:12.568Z,2.10
2023-04-16T18:15:39.120Z,2.40
2023-04-16T18:18:06.013Z,2.60
2023-04-16T18:20:32.529Z,2.60
2023-04-16T18:22:59.034Z,3.00
2023-04-16T18:25:33.953Z,2.60
2023-04-16T18:28:02.078Z,2.60
2023-04-16T18:30:28.727Z,2.90
2023-04-16T18:33:21.434Z,2.50
2023-04-16T18:35:41.700Z,2.50
2023-04-16T18:38:08.279Z,2.90
2023-04-16T18:40:36.011Z,2.50
2023-04-16T18:43:05.565Z,2.70
2023-04-16T18:48:00.070Z,2.50
2023-04-16T18:50:26.597Z,2.60
2023-04-16T18:52:53.158Z,2.70
2023-04-16T18:55:19.646Z,2.70
2023-04-16T18:57:46.186Z,2.60
2023-04-16T19:00:13.157Z,3.00
2023-04-16T19:02:40.331Z,2.90
2023-04-16T19:05:07.868Z,2.80
2023-04-16T19:07:34.487Z,2.90
2023-04-16T19:10:01.360Z,2.70
2023-04-16T19:12:28.705Z,2.80
2023-04-16T19:14:55.269Z,2.80
2023-04-16T19:17:21.889Z,3.00
2023-04-16T19:19:48.555Z,3.00
2023-04-16T19:22:15.016Z,3.10
2023-04-16T19:24:41.526Z,3.60
2023-04-16T19:27:08.060Z,3.60
2023-04-16T19:29:35.143Z,3.60
2023-04-16T19:32:02.363Z,3.10
2023-04-16T19:34:29.067Z,2.80
2023-04-16T19:36:55.516Z,2.70
2023-04-16T19:39:23.233Z,3.00
2023-04-16T19:41:49.747Z,2.70
2023-04-16T19:44:16.273Z,3.00
2023-04-16T19:46:42.899Z,3.10
2023-04-16T19:49:09.712Z,3.50
2023-04-16T19:51:36.566Z,3.00
2023-04-16T19:54:03.039Z,3.30
2023-04-16T19:56:29.497Z,3.50
2023-04-16T19:58:55.981Z,3.40
2023-04-16T20:01:22.668Z,3.10
2023-04-16T20:03:49.327Z,3.90
2023-04-16T20:06:16.243Z,3.40
2023-04-16T20:08:42.942Z,3.60
2023-04-16T20:11:09.942Z,3.50
2023-04-16T20:13:36.393Z,3.40
2023-04-16T20:16:03.393Z,3.70
2023-04-16T20:18:30.035Z,3.10
2023-04-16T20:20:56.534Z,3.00
2023-04-16T20:23:23.079Z,3.50
2023-04-16T20:25:49.631Z,3.10
2023-04-16T20:28:16.167Z,3.20
2023-04-16T20:30:42.745Z,3.00
2023-04-16T20:33:09.379Z,3.00
2023-04-16T20:35:36.268Z,3.30
2023-04-16T20:38:02.750Z,3.10
2023-04-16T20:40:29.423Z,2.90
2023-04-16T20:42:57.521Z,2.90
2023-04-16T20:45:24.054Z,2.80
2023-04-16T20:47:50.533Z,2.90
2023-04-16T20:50:17.116Z,3.00
2023-04-16T20:52:43.626Z,3.40
2023-04-16T20:55:10.175Z,3.10
2023-04-16T20:57:36.643Z,2.90
2023-04-16T21:00:03.306Z,2.90
2023-04-16T21:02:29.988Z,3.30
2023-04-16T21:04:56.637Z,2.90
2023-04-16T21:07:23.109Z,2.90
2023-04-16T21:09:49.683Z,3.00
2023-04-16T21:12:16.134Z,2.80
2023-04-16T21:14:42.609Z,3.00
2023-04-16T21:17:09.077Z,3.20
2023-04-16T21:19:35.677Z,2.60
2023-04-16T21:22:02.271Z,2.60
2023-04-16T21:24:29.021Z,2.50
2023-04-16T21:26:55.521Z,2.50
2023-04-16T21:29:22.057Z,2.40
2023-04-16T21:31:48.609Z,2.30
2023-04-16T21:34:15.220Z,2.40
2023-04-16T21:36:41.755Z,2.60
2023-04-16T21:39:08.211Z,2.80
2023-04-16T21:41:34.742Z,2.50
2023-04-16T21:44:01.204Z,2.70
2023-04-16T21:46:27.703Z,2.70
2023-04-16T21:48:54.197Z,2.60
2023-04-16T21:51:20.718Z,2.40
2023-04-16T21:53:47.200Z,2.70
2023-04-16T21:56:13.699Z,2.70
2023-04-16T21:58:40.207Z,2.80
2023-04-16T22:01:08.918Z,2.40
2023-04-16T22:03:37.039Z,2.80
2023-04-16T22:06:03.812Z,2.30
2023-04-16T22:08:30.537Z,2.40
2023-04-16T22:10:58.639Z,2.80
2023-04-16T22:13:25.780Z,2.80
2023-04-16T22:15:53.195Z,2.70
2023-04-16T22:18:19.675Z,2.90
2023-04-16T22:20:46.329Z,2.80
2023-04-16T22:23:13.601Z,2.50
2023-04-16T22:25:40.084Z,2.70
2023-04-16T22:28:06.623Z,2.30
2023-04-16T22:30:33.156Z,2.30
2023-04-16T22:32:59.747Z,2.70
2023-04-16T22:35:26.260Z,2.60
2023-04-16T22:37:52.724Z,2.70
2023-04-16T22:40:19.176Z,2.40
2023-04-16T22:42:45.662Z,2.50
2023-04-16T22:45:12.137Z,2.60
2023-04-16T22:47:38.905Z,2.40
2023-04-16T22:50:06.128Z,2.70
2023-04-16T22:52:32.612Z,2.30
2023-04-16T22:54:59.110Z,2.30
2023-04-16T22:57:25.714Z,2.70
2023-04-16T22:59:52.722Z,2.80
2023-04-16T23:02:20.444Z,2.40
2023-04-16T23:04:47.251Z,2.40
2023-04-16T23:07:14.644Z,2.60
2023-04-16T23:09:41.152Z,2.50
2023-04-16T23:12:07.994Z,2.40
2023-04-16T23:14:34.617Z,2.30
2023-04-16T23:17:01.090Z,2.30
2023-04-16T23:19:27.564Z,2.50
2023-04-16T23:21:53.996Z,2.50
2023-04-16T23:24:20.500Z,2.30
2023-04-16T23:26:47.006Z,2.40
2023-04-16T23:29:13.629Z,2.40
2023-04-16T23:31:40.307Z,2.40
2023-04-16T23:34:06.796Z,2.40
2023-04-16T23:36:33.307Z,2.50
2023-04-16T23:38:59.743Z,2.10
2023-04-16T23:41:26.222Z,2.50
2023-04-16T23:43:52.720Z,2.00
2023-04-16T23:46:19.192Z,2.20
2023-04-16T23:48:45.664Z,2.60
2023-04-16T23:51:12.139Z,2.30
2023-04-16T23:53:38.585Z,2.30
2023-04-16T23:56:05.372Z,2.40
2023-04-16T23:58:31.912Z,2.50
